Time;durP1;ratioP1;P1;durP2;ratioP2;P2;SDS_P1;SDS_P2;PMS_P1;PMS_P2;Temp;Humidity;BMP_temperature;BMP_pressure;BME280_temperature;BME280_humidity;BME280_pressure;Samples;Min_cycle;Max_cycle;Signal;HPM_P1;HPM_P2
2022/03/16 00:00:28;;;;;;;15.98;5.05;;;15.70;52.50;;;;;;6124731;28;20047;-68
2022/03/16 00:03:29;;;;;;;14.90;5.03;;;15.70;52.50;;;;;;6124116;28;20027;-68
2022/03/16 00:06:30;;;;;;;11.05;4.43;;;15.70;52.50;;;;;;6125093;28;20032;-67
2022/03/16 00:09:31;;;;;;;10.60;3.78;;;15.70;52.50;;;;;;6125599;28;20606;-68
2022/03/16 00:12:32;;;;;;;16.75;4.18;;;15.70;52.60;;;;;;6125932;28;20042;-68
2022/03/16 00:15:33;;;;;;;8.02;4.07;;;15.70;52.70;;;;;;6125874;28;20339;-68
2022/03/16 00:18:34;;;;;;;14.70;4.35;;;15.60;52.60;;;;;;6108966;28;20060;-67
2022/03/16 00:21:34;;;;;;;9.02;3.90;;;15.60;52.60;;;;;;6118317;28;20039;-67
2022/03/16 00:24:35;;;;;;;9.93;3.97;;;15.60;52.60;;;;;;6123128;28;20117;-68
2022/03/16 00:27:37;;;;;;;11.93;4.10;;;15.60;52.70;;;;;;6124723;28;20047;-70
2022/03/16 00:30:38;;;;;;;10.25;3.72;;;15.50;53.30;;;;;;6124613;28;20139;-68
2022/03/16 00:33:39;;;;;;;17.98;3.92;;;15.50;52.80;;;;;;6123726;28;20461;-68
2022/03/16 00:36:40;;;;;;;11.02;4.05;;;15.40;52.90;;;;;;6115081;28;20050;-67
2022/03/16 00:39:41;;;;;;;11.82;4.40;;;15.40;53.00;;;;;;6124727;28;20127;-68
2022/03/16 00:42:42;;;;;;;7.32;3.95;;;15.40;53.20;;;;;;6124090;28;20078;-68
2022/03/16 00:45:43;;;;;;;7.85;4.38;;;15.30;53.30;;;;;;6124696;28;20039;-67
2022/03/16 00:48:44;;;;;;;11.27;4.32;;;15.30;53.40;;;;;;6124082;28;20093;-68
2022/03/16 00:51:46;;;;;;;14.15;3.90;;;15.30;53.40;;;;;;6119062;28;20438;-67
2022/03/16 00:54:46;;;;;;;10.75;4.28;;;15.20;53.50;;;;;;6124032;28;20035;-67
2022/03/16 00:57:47;;;;;;;12.15;4.60;;;15.20;53.60;;;;;;6126368;28;20137;-67
2022/03/16 01:00:48;;;;;;;12.43;3.35;;;15.10;53.80;;;;;;6126530;28;20050;-67
2022/03/16 01:03:49;;;;;;;10.57;4.22;;;15.00;53.90;;;;;;6124124;28;20054;-67
2022/03/16 01:06:53;;;;;;;8.88;3.65;;;15.00;54.00;;;;;;6123223;28;20391;-67
2022/03/16 01:09:54;;;;;;;10.65;3.80;;;14.90;54.30;;;;;;6100541;28;20036;-66
2022/03/16 01:12:55;;;;;;;12.57;3.85;;;14.90;54.40;;;;;;6123559;28;20373;-68
2022/03/16 01:15:56;;;;;;;11.25;4.65;;;14.80;54.40;;;;;;6123554;28;20346;-67
2022/03/16 01:18:56;;;;;;;8.13;3.72;;;14.90;54.50;;;;;;6111081;28;20043;-67
2022/03/16 01:21:57;;;;;;;7.57;3.88;;;14.90;54.50;;;;;;6129265;28;20071;-68
2022/03/16 01:24:58;;;;;;;9.10;3.75;;;14.90;54.50;;;;;;6124080;28;20036;-67
2022/03/16 01:27:59;;;;;;;16.15;4.45;;;14.90;54.50;;;;;;6129374;28;20032;-67
2022/03/16 01:31:01;;;;;;;13.68;4.07;;;14.90;55.10;;;;;;6112335;28;20509;-67
2022/03/16 01:34:03;;;;;;;9.80;4.43;;;14.90;54.50;;;;;;6128931;28;20032;-67
2022/03/16 01:37:05;;;;;;;9.18;4.28;;;14.90;54.50;;;;;;6129147;28;20047;-68
2022/03/16 01:40:06;;;;;;;11.10;4.90;;;14.90;54.40;;;;;;6129177;28;20078;-68
2022/03/16 01:43:07;;;;;;;11.98;4.32;;;14.90;54.30;;;;;;6129481;28;20047;-68
2022/03/16 01:46:08;;;;;;;14.63;4.80;;;14.90;54.30;;;;;;6113047;28;20040;-67
2022/03/16 01:49:13;;;;;;;9.23;4.80;;;14.90;54.30;;;;;;6128244;28;20051;-68
2022/03/16 01:52:22;;;;;;;20.67;5.03;;;14.90;54.30;;;;;;6112330;28;20043;-67
2022/03/16 01:55:23;;;;;;;9.95;3.83;;;14.90;54.30;;;;;;6112783;28;20032;-67
2022/03/16 01:58:24;;;;;;;8.00;3.95;;;14.90;54.30;;;;;;6128800;28;20393;-67
2022/03/16 02:01:25;;;;;;;9.88;3.83;;;14.90;54.30;;;;;;6106132;29;20091;-67
2022/03/16 02:04:29;;;;;;;8.85;3.95;;;14.80;54.50;;;;;;6110330;28;20055;-67
2022/03/16 02:07:29;;;;;;;12.95;3.65;;;14.80;54.60;;;;;;6128342;28;20040;-67
2022/03/16 02:10:31;;;;;;;8.23;4.00;;;14.70;54.80;;;;;;6111544;28;20066;-68
2022/03/16 02:13:36;;;;;;;9.77;4.28;;;14.70;55.00;;;;;;6129016;28;20417;-67
2022/03/16 02:16:37;;;;;;;10.20;3.78;;;14.60;55.10;;;;;;6128213;28;20063;-67
2022/03/16 02:19:38;;;;;;;8.70;4.07;;;14.60;55.10;;;;;;6129278;28;20465;-67
2022/03/16 02:22:56;;;;;;;14.57;4.57;;;14.50;55.20;;;;;;6130746;28;20036;-67
2022/03/16 02:25:57;;;;;;;10.88;4.07;;;14.50;55.40;;;;;;6126878;28;20039;-67
2022/03/16 02:28:58;;;;;;;11.93;4.18;;;14.50;55.40;;;;;;6123710;28;20031;-68
2022/03/16 02:31:59;;;;;;;7.85;4.28;;;14.50;55.40;;;;;;6091991;28;20036;-67
2022/03/16 02:35:00;;;;;;;8.25;4.10;;;14.40;55.40;;;;;;6125703;28;20040;-67
2022/03/16 02:38:01;;;;;;;6.85;3.97;;;14.40;55.50;;;;;;6127373;28;20043;-68
2022/03/16 02:41:02;;;;;;;11.35;3.65;;;14.50;55.40;;;;;;6128427;28;20369;-67
2022/03/16 02:44:03;;;;;;;12.00;4.28;;;14.50;55.40;;;;;;6128847;28;20110;-67
2022/03/16 02:47:05;;;;;;;12.90;4.97;;;14.50;55.40;;;;;;6127399;28;20036;-68
2022/03/16 02:50:06;;;;;;;19.50;4.20;;;14.50;55.50;;;;;;6142278;28;20046;-67
2022/03/16 02:53:07;;;;;;;9.88;4.30;;;14.40;55.60;;;;;;6128550;28;20483;-68
2022/03/16 02:56:08;;;;;;;9.82;4.53;;;14.40;55.60;;;;;;6128321;28;20036;-68
2022/03/16 02:59:31;;;;;;;7.38;3.78;;;14.30;55.70;;;;;;6124320;28;20040;-68
2022/03/16 03:02:32;;;;;;;8.95;4.50;;;14.30;55.90;;;;;;6123406;28;20062;-68
2022/03/16 03:05:33;;;;;;;10.70;4.15;;;14.30;55.90;;;;;;6126669;28;20059;-67
2022/03/16 03:08:33;;;;;;;6.60;3.97;;;14.20;55.90;;;;;;6126750;28;20040;-67
2022/03/16 03:11:34;;;;;;;8.38;3.88;;;14.20;56.00;;;;;;6109037;28;20122;-68
2022/03/16 03:14:35;;;;;;;9.63;4.20;;;14.20;56.20;;;;;;6110484;28;20040;-67
2022/03/16 03:17:37;;;;;;;13.82;3.95;;;14.20;56.20;;;;;;6125293;28;20043;-67
2022/03/16 03:20:38;;;;;;;16.65;4.32;;;14.20;56.30;;;;;;6110098;28;20039;-67
2022/03/16 03:23:39;;;;;;;14.70;4.47;;;14.20;56.30;;;;;;6126477;28;20087;-68
2022/03/16 03:26:40;;;;;;;7.90;4.25;;;14.20;56.30;;;;;;6123706;28;20028;-67
2022/03/16 03:29:41;;;;;;;10.75;4.50;;;14.20;56.20;;;;;;6126689;28;20495;-67
2022/03/16 03:32:42;;;;;;;18.25;4.63;;;14.20;56.20;;;;;;6126093;28;20052;-67
2022/03/16 03:35:44;;;;;;;7.15;4.22;;;14.20;56.20;;;;;;6125354;28;20044;-68
2022/03/16 03:38:45;;;;;;;16.83;4.43;;;14.20;56.20;;;;;;6125094;28;20105;-67
2022/03/16 03:41:46;;;;;;;13.48;4.65;;;14.20;56.20;;;;;;6109216;28;20039;-67
2022/03/16 03:44:47;;;;;;;17.38;5.40;;;14.10;56.20;;;;;;6126090;28;20119;-67
2022/03/16 03:47:48;;;;;;;12.95;5.43;;;14.10;56.20;;;;;;6124337;28;20047;-68
2022/03/16 03:50:48;;;;;;;15.68;5.50;;;14.10;56.20;;;;;;6123994;28;20525;-68
2022/03/16 03:53:49;;;;;;;12.05;6.20;;;14.10;56.30;;;;;;6125093;28;20036;-67
2022/03/16 03:56:50;;;;;;;11.07;5.68;;;14.10;56.30;;;;;;6127224;28;20119;-67
2022/03/16 03:59:51;;;;;;;13.10;6.47;;;14.10;56.40;;;;;;6127193;28;20357;-67
2022/03/16 04:02:52;;;;;;;12.35;6.15;;;14.10;56.50;;;;;;6125300;28;20058;-67
2022/03/16 04:05:53;;;;;;;14.43;6.25;;;14.00;56.50;;;;;;6126888;28;20118;-68
2022/03/16 04:08:54;;;;;;;17.45;6.47;;;14.00;56.50;;;;;;6125281;28;20048;-67
2022/03/16 04:11:54;;;;;;;9.95;4.80;;;14.00;57.10;;;;;;6125545;28;20031;-68
2022/03/16 04:14:55;;;;;;;18.13;5.25;;;14.00;56.50;;;;;;6108698;28;20135;-68
2022/03/16 04:17:56;;;;;;;16.65;5.70;;;14.00;56.50;;;;;;6126821;28;20386;-67
2022/03/16 04:20:57;;;;;;;18.77;4.78;;;14.00;56.50;;;;;;6124361;28;20058;-67
2022/03/16 04:23:58;;;;;;;12.82;6.22;;;14.00;56.50;;;;;;6121817;28;20046;-68
2022/03/16 04:26:59;;;;;;;19.63;6.53;;;14.00;56.60;;;;;;6109819;28;20040;-67
2022/03/16 04:30:00;;;;;;;19.02;5.85;;;14.00;56.60;;;;;;6126570;28;20398;-68
2022/03/16 04:33:01;;;;;;;12.75;6.45;;;14.00;56.50;;;;;;6124776;28;20150;-67
2022/03/16 04:36:02;;;;;;;12.75;5.00;;;14.00;56.50;;;;;;6105902;28;20495;-67
2022/03/16 04:39:04;;;;;;;10.10;4.93;;;14.00;56.60;;;;;;6106505;28;20051;-68
2022/03/16 04:42:05;;;;;;;17.65;6.55;;;14.00;56.70;;;;;;6125738;28;20055;-67
2022/03/16 04:45:07;;;;;;;14.23;6.57;;;14.00;56.80;;;;;;6125063;28;20046;-67
2022/03/16 04:48:09;;;;;;;16.98;6.15;;;14.00;56.80;;;;;;6109167;28;20059;-68
2022/03/16 04:51:10;;;;;;;15.15;6.32;;;13.90;56.80;;;;;;6122719;28;20421;-68
2022/03/16 04:54:11;;;;;;;15.65;5.68;;;13.90;56.80;;;;;;6122147;28;20043;-67
2022/03/16 04:57:12;;;;;;;14.27;6.28;;;13.90;56.80;;;;;;6108893;28;20051;-67
2022/03/16 05:00:14;;;;;;;10.05;5.75;;;13.90;56.80;;;;;;6118817;28;20043;-67
2022/03/16 05:03:15;;;;;;;10.50;5.63;;;13.90;56.90;;;;;;6123939;28;20039;-68
2022/03/16 05:06:15;;;;;;;8.90;4.57;;;13.90;56.90;;;;;;6124634;28;20350;-67
2022/03/16 05:09:16;;;;;;;15.30;5.88;;;13.90;56.90;;;;;;6124116;28;20036;-69
2022/03/16 05:12:17;;;;;;;10.45;5.65;;;13.90;56.90;;;;;;6126001;28;20060;-67
2022/03/16 05:15:20;;;;;;;13.38;6.00;;;13.90;56.90;;;;;;6108734;28;20365;-67
2022/03/16 05:18:23;;;;;;;12.85;5.80;;;13.90;57.00;;;;;;6124117;28;20598;-67
2022/03/16 05:21:23;;;;;;;17.08;5.78;;;13.90;57.10;;;;;;6124045;28;20125;-67
2022/03/16 05:24:26;;;;;;;11.40;6.03;;;13.90;57.10;;;;;;6125297;28;20423;-69
2022/03/16 05:27:27;;;;;;;14.38;5.57;;;13.80;57.10;;;;;;6124765;28;20043;-67
2022/03/16 05:30:27;;;;;;;12.27;6.28;;;13.80;57.10;;;;;;6121368;28;20342;-69
2022/03/16 05:33:29;;;;;;;20.75;6.20;;;13.80;57.10;;;;;;6124120;28;20043;-67
2022/03/16 05:36:30;;;;;;;12.02;6.47;;;13.70;57.20;;;;;;6126454;28;20039;-69
2022/03/16 05:39:31;;;;;;;20.63;7.20;;;13.70;57.20;;;;;;6116748;28;20059;-69
2022/03/16 05:42:33;;;;;;;17.63;7.20;;;13.70;57.30;;;;;;6120645;28;20122;-67
2022/03/16 05:45:34;;;;;;;17.42;7.60;;;13.70;57.30;;;;;;6119047;28;20127;-67
2022/03/16 05:48:35;;;;;;;25.83;8.60;;;13.60;57.30;;;;;;6098299;28;20074;-67
2022/03/16 05:51:36;;;;;;;19.52;8.15;;;13.60;57.30;;;;;;6116630;28;20052;-67
2022/03/16 05:54:36;;;;;;;22.95;9.00;;;13.60;57.40;;;;;;6124839;28;20110;-67
2022/03/16 05:57:39;;;;;;;19.00;8.38;;;13.60;57.40;;;;;;6108084;28;20039;-68
2022/03/16 06:00:42;;;;;;;22.88;7.70;;;13.60;57.50;;;;;;6123599;28;20039;-68
2022/03/16 06:03:43;;;;;;;17.70;6.50;;;13.50;57.50;;;;;;6120143;28;20046;-67
2022/03/16 06:06:44;;;;;;;12.52;6.15;;;13.60;57.50;;;;;;6123603;28;20065;-68
2022/03/16 06:09:45;;;;;;;11.18;6.10;;;13.60;57.50;;;;;;6122453;28;20122;-67
2022/03/16 06:12:56;;;;;;;12.30;5.80;;;13.60;57.50;;;;;;6122639;28;20082;-67
2022/03/16 06:15:57;;;;;;;17.95;7.00;;;13.50;57.50;;;;;;6122123;28;21228;-69
2022/03/16 06:18:57;;;;;;;9.75;5.22;;;13.50;57.60;;;;;;6122915;28;20115;-68
2022/03/16 06:21:58;;;;;;;15.60;5.78;;;13.50;57.60;;;;;;6124435;28;20040;-69
2022/03/16 06:24:59;;;;;;;12.82;6.15;;;13.50;57.70;;;;;;6130602;28;20039;-68
2022/03/16 06:28:01;;;;;;;23.83;6.22;;;13.40;57.60;;;;;;6113323;28;20055;-68
2022/03/16 06:31:02;;;;;;;18.48;6.35;;;13.50;57.70;;;;;;6129419;28;20038;-67
2022/03/16 06:34:03;;;;;;;10.00;5.13;;;13.50;57.70;;;;;;6112965;28;20032;-67
2022/03/16 06:37:04;;;;;;;20.52;5.45;;;13.50;57.70;;;;;;6124922;28;20339;-68
2022/03/16 06:40:06;;;;;;;10.00;5.03;;;13.50;57.60;;;;;;6115542;28;20024;-68
2022/03/16 06:43:07;;;;;;;9.95;5.03;;;13.50;57.60;;;;;;6122300;28;20036;-68
2022/03/16 06:46:08;;;;;;;14.20;4.80;;;13.60;57.60;;;;;;6126284;28;20118;-68
2022/03/16 06:49:08;;;;;;;11.40;4.75;;;13.60;57.50;;;;;;6126472;28;20398;-68
2022/03/16 06:52:09;;;;;;;13.32;5.75;;;13.60;57.50;;;;;;6129616;28;20450;-68
2022/03/16 06:55:10;;;;;;;13.35;4.57;;;13.70;57.40;;;;;;6128530;28;20047;-68
2022/03/16 06:58:11;;;;;;;13.73;4.47;;;13.70;57.30;;;;;;6127819;28;20056;-69
2022/03/16 07:01:12;;;;;;;15.52;4.65;;;13.70;57.20;;;;;;6126378;28;20035;-67
2022/03/16 07:04:13;;;;;;;17.33;4.57;;;13.70;57.10;;;;;;6127286;28;20083;-69
2022/03/16 07:07:14;;;;;;;11.10;4.57;;;13.80;57.10;;;;;;6128131;28;20036;-69
2022/03/16 07:10:15;;;;;;;12.80;5.38;;;13.80;57.10;;;;;;6111306;28;20036;-69
2022/03/16 07:13:16;;;;;;;9.80;4.82;;;13.80;57.00;;;;;;6105914;28;20047;-69
2022/03/16 07:16:17;;;;;;;10.25;5.13;;;13.90;56.90;;;;;;6106926;28;20029;-68
2022/03/16 07:19:18;;;;;;;14.45;4.65;;;13.90;56.80;;;;;;6123876;28;20032;-68
2022/03/16 07:22:19;;;;;;;33.13;6.45;;;14.00;56.70;;;;;;6108606;28;20119;-68
2022/03/16 07:25:20;;;;;;;11.88;5.00;;;14.00;56.70;;;;;;6106440;28;20059;-68
2022/03/16 07:28:21;;;;;;;18.38;4.72;;;14.10;56.70;;;;;;6108577;28;20119;-68
2022/03/16 07:31:22;;;;;;;8.98;4.30;;;14.10;56.60;;;;;;6124022;28;20409;-69
2022/03/16 07:34:24;;;;;;;37.25;8.13;;;14.20;56.50;;;;;;6122962;28;20091;-70
2022/03/16 07:37:25;;;;;;;21.55;6.97;;;14.20;56.50;;;;;;6123275;28;20032;-69
2022/03/16 07:40:26;;;;;;;20.45;5.85;;;14.30;56.30;;;;;;6135842;28;20126;-69
2022/03/16 07:43:27;;;;;;;17.58;5.63;;;14.40;56.20;;;;;;6124119;28;20039;-68
2022/03/16 07:46:27;;;;;;;24.52;6.88;;;14.50;56.00;;;;;;6124383;28;20430;-68
2022/03/16 07:49:29;;;;;;;32.55;6.30;;;14.60;55.90;;;;;;6124584;28;20040;-69
2022/03/16 07:52:31;;;;;;;12.52;5.45;;;14.70;55.60;;;;;;6122751;28;20130;-70
2022/03/16 07:55:32;;;;;;;20.88;5.45;;;14.80;55.40;;;;;;6122661;28;20543;-70
2022/03/16 07:58:35;;;;;;;23.65;6.60;;;15.00;55.30;;;;;;6124291;28;20040;-68
2022/03/16 08:01:36;;;;;;;19.42;4.95;;;15.10;55.10;;;;;;6125145;28;20047;-67
2022/03/16 08:04:36;;;;;;;13.55;5.10;;;15.20;54.90;;;;;;6122196;28;20051;-70
2022/03/16 08:07:37;;;;;;;12.55;5.70;;;15.40;54.60;;;;;;6124532;28;20071;-69
2022/03/16 08:10:38;;;;;;;10.85;5.57;;;15.50;54.40;;;;;;6126268;28;20039;-69
2022/03/16 08:13:40;;;;;;;26.10;5.93;;;15.60;54.30;;;;;;6122324;29;20322;-69
2022/03/16 08:16:41;;;;;;;13.35;5.72;;;15.70;54.00;;;;;;6109969;28;20048;-69
2022/03/16 08:19:41;;;;;;;17.70;6.18;;;15.80;53.70;;;;;;6111560;28;20501;-69
2022/03/16 08:22:43;;;;;;;15.50;5.75;;;15.80;53.50;;;;;;6124343;28;20393;-69
2022/03/16 08:25:43;;;;;;;25.65;6.05;;;15.90;53.40;;;;;;6124751;28;20090;-69
2022/03/16 08:28:45;;;;;;;14.15;6.20;;;15.90;53.30;;;;;;6125221;28;20442;-69
2022/03/16 08:31:46;;;;;;;20.90;7.15;;;16.00;53.30;;;;;;6125518;28;20039;-70
2022/03/16 08:34:47;;;;;;;16.48;5.85;;;16.10;53.10;;;;;;6125176;28;20050;-69
2022/03/16 08:37:48;;;;;;;14.48;5.80;;;16.20;53.00;;;;;;6125858;28;20036;-70
2022/03/16 08:40:49;;;;;;;22.60;6.90;;;16.30;52.80;;;;;;6125729;28;20118;-69
2022/03/16 08:43:50;;;;;;;23.45;6.95;;;16.50;52.50;;;;;;6126983;28;20046;-69
2022/03/16 08:46:51;;;;;;;21.92;7.20;;;16.60;52.40;;;;;;6125133;28;20063;-69
2022/03/16 08:49:55;;;;;;;19.55;6.50;;;16.70;52.00;;;;;;6125678;28;20106;-70
2022/03/16 08:52:57;;;;;;;13.30;6.43;;;16.80;51.90;;;;;;6126920;28;20410;-69
2022/03/16 08:55:58;;;;;;;12.10;7.03;;;16.80;51.60;;;;;;6123172;28;20076;-70
2022/03/16 08:59:00;;;;;;;20.52;7.00;;;16.80;51.30;;;;;;6125117;28;20032;-71
2022/03/16 09:02:01;;;;;;;20.25;6.93;;;16.80;51.40;;;;;;6122319;28;20043;-68
2022/03/16 09:05:02;;;;;;;17.38;6.82;;;16.90;51.40;;;;;;6124536;28;20099;-68
2022/03/16 09:08:04;;;;;;;19.67;7.38;;;16.90;51.30;;;;;;6125937;28;20339;-69
2022/03/16 09:11:05;;;;;;;17.25;7.03;;;17.00;51.20;;;;;;6108634;28;20035;-70
2022/03/16 09:14:06;;;;;;;19.00;7.55;;;17.10;51.10;;;;;;6124779;28;20456;-69
2022/03/16 09:17:10;;;;;;;33.97;8.65;;;17.20;50.90;;;;;;6124721;28;20501;-69
2022/03/16 09:20:11;;;;;;;21.77;6.90;;;17.30;50.60;;;;;;6107948;28;20047;-69
2022/03/16 09:23:12;;;;;;;24.63;7.97;;;17.30;50.30;;;;;;6124433;28;20350;-68
2022/03/16 09:26:13;;;;;;;15.95;6.95;;;17.20;50.20;;;;;;6124879;28;20036;-69
2022/03/16 09:29:16;;;;;;;18.48;6.85;;;17.40;50.20;;;;;;6121222;28;20661;-69
2022/03/16 09:32:19;;;;;;;16.00;6.45;;;17.50;50.20;;;;;;6105380;28;20043;-68
2022/03/16 09:35:21;;;;;;;21.52;7.32;;;17.60;49.90;;;;;;6125630;28;20082;-68
2022/03/16 09:38:22;;;;;;;17.80;7.70;;;17.60;49.70;;;;;;6128652;28;20047;-70
2022/03/16 09:41:24;;;;;;;21.63;7.80;;;17.70;49.60;;;;;;6112853;28;20048;-70
2022/03/16 09:44:27;;;;;;;18.98;7.18;;;17.80;49.50;;;;;;6130571;28;20050;-69
2022/03/16 09:47:32;;;;;;;17.63;7.90;;;17.80;49.40;;;;;;6129552;28;20545;-70
2022/03/16 09:50:33;;;;;;;15.32;6.90;;;18.00;49.20;;;;;;6130480;28;20047;-69
2022/03/16 09:53:33;;;;;;;20.98;7.88;;;18.10;48.90;;;;;;6129524;28;20314;-69
2022/03/16 09:56:36;;;;;;;23.17;8.00;;;18.20;48.60;;;;;;6128457;28;20055;-69
2022/03/16 09:59:38;;;;;;;26.02;9.32;;;18.20;48.40;;;;;;6122888;28;20032;-69
2022/03/16 10:02:39;;;;;;;23.08;8.68;;;18.40;48.40;;;;;;6127623;28;20047;-69
2022/03/16 10:05:40;;;;;;;20.48;7.13;;;18.40;48.00;;;;;;6125823;28;20043;-69
2022/03/16 10:08:42;;;;;;;16.40;8.13;;;18.50;48.00;;;;;;6126486;28;20098;-68
2022/03/16 10:15:24;;;;;;;18.42;8.00;;;18.70;47.70;;;;;;6057965;29;20040;-68
2022/03/16 10:18:26;;;;;;;16.27;7.60;;;18.70;47.50;;;;;;6061943;29;20052;-69
2022/03/16 10:21:32;;;;;;;20.20;8.05;;;18.80;47.60;;;;;;6076465;29;20435;-69
2022/03/16 10:24:33;;;;;;;23.67;7.80;;;18.90;47.60;;;;;;6077043;29;20048;-69
2022/03/16 10:27:36;;;;;;;19.38;7.13;;;19.00;47.30;;;;;;6060895;29;20058;-71
2022/03/16 10:30:50;;;;;;;17.05;7.88;;;19.10;47.00;;;;;;6047135;29;20032;-70
2022/03/16 10:33:56;;;;;;;21.90;7.55;;;19.20;47.00;;;;;;6071232;29;20044;-70
2022/03/16 10:37:01;;;;;;;16.95;7.30;;;19.30;46.80;;;;;;6076234;29;20040;-70
2022/03/16 10:40:17;;;;;;;16.88;7.45;;;19.40;46.50;;;;;;6061370;29;20032;-70
2022/03/16 10:46:46;;;;;;;22.77;9.20;;;19.70;46.00;;;;;;6113768;28;20051;-70
2022/03/16 10:50:00;;;;;;;16.52;7.60;;;19.80;45.80;;;;;;6123946;28;20384;-70
2022/03/16 10:53:01;;;;;;;27.48;8.60;;;20.00;45.70;;;;;;6125684;28;20122;-70
2022/03/16 10:56:03;;;;;;;25.02;8.13;;;20.20;45.50;;;;;;6123498;28;20044;-69
2022/03/16 10:59:04;;;;;;;22.02;7.85;;;20.40;45.10;;;;;;6108750;28;20445;-69
2022/03/16 11:02:12;;;;;;;22.65;7.38;;;20.50;44.70;;;;;;6124298;28;20051;-69
2022/03/16 11:05:17;;;;;;;15.35;7.78;;;20.60;44.30;;;;;;6125642;28;20078;-68
2022/03/16 11:08:20;;;;;;;22.50;7.57;;;20.70;44.00;;;;;;6118875;28;20071;-71
2022/03/16 11:14:44;;;;;;;17.65;6.53;;;21.00;43.60;;;;;;6125609;28;20035;-71
2022/03/16 11:17:45;;;;;;;17.13;5.90;;;21.20;43.30;;;;;;6123053;28;20066;-69
2022/03/16 11:20:48;;;;;;;17.67;6.63;;;21.40;42.90;;;;;;6124985;28;20040;-71
2022/03/16 11:27:15;;;;;;;15.15;5.80;;;21.60;42.50;;;;;;6124083;28;20372;-70
2022/03/16 11:30:26;;;;;;;10.65;4.47;;;21.80;42.20;;;;;;6117975;28;20040;-70
2022/03/16 11:33:27;;;;;;;14.48;5.38;;;21.90;41.50;;;;;;6120275;28;20094;-69
2022/03/16 11:36:34;;;;;;;11.05;5.00;;;22.00;40.90;;;;;;6119908;28;20028;-70
2022/03/16 11:39:44;;;;;;;15.23;5.80;;;22.10;40.70;;;;;;6116852;28;20058;-70
2022/03/16 11:43:11;;;;;;;14.30;4.93;;;22.20;40.50;;;;;;6112861;28;20119;-70
2022/03/16 11:46:40;;;;;;;15.48;5.82;;;22.10;40.20;;;;;;6119469;28;20039;-70
2022/03/16 11:49:45;;;;;;;9.98;6.30;;;22.10;40.10;;;;;;6117301;28;20054;-68
2022/03/16 11:52:59;;;;;;;19.60;7.65;;;22.10;39.90;;;;;;6121530;28;20036;-70
2022/03/16 11:56:20;;;;;;;17.10;6.00;;;22.20;39.70;;;;;;6117285;28;20115;-70
2022/03/16 11:59:23;;;;;;;13.43;5.43;;;22.50;39.40;;;;;;6121767;28;20031;-70
2022/03/16 12:02:27;;;;;;;16.85;6.57;;;22.80;38.80;;;;;;6112486;28;20043;-70
2022/03/16 12:06:01;;;;;;;12.90;5.60;;;23.10;38.20;;;;;;6122082;28;20115;-70
2022/03/16 12:09:04;;;;;;;10.20;4.57;;;23.30;37.60;;;;;;6099973;28;20049;-69
2022/03/16 12:15:52;;;;;;;17.70;4.70;;;23.50;37.10;;;;;;6122188;28;20068;-70
2022/03/16 12:18:54;;;;;;;10.70;4.85;;;23.70;36.80;;;;;;6120661;28;20046;-70
2022/03/16 12:22:00;;;;;;;13.07;5.28;;;24.00;36.60;;;;;;6121932;28;20087;-69
2022/03/16 12:25:22;;;;;;;13.00;4.80;;;24.30;35.90;;;;;;6114337;28;20357;-70
2022/03/16 12:28:59;;;;;;;17.00;5.78;;;24.40;35.20;;;;;;6106030;28;20050;-70
2022/03/16 12:31:52;;;;;;;15.23;6.35;;;24.40;35.00;;;;;;6112640;28;20035;-70
2022/03/16 12:34:57;;;;;;;21.95;5.95;;;24.50;34.90;;;;;;6106302;28;20101;-70
2022/03/16 12:37:57;;;;;;;12.63;5.30;;;24.50;34.80;;;;;;6106875;28;20102;-70
2022/03/16 12:44:24;;;;;;;11.90;5.05;;;24.70;34.40;;;;;;6122526;28;20036;-69
2022/03/16 12:47:30;;;;;;;18.42;5.85;;;24.70;34.40;;;;;;6118182;28;20385;-70
2022/03/16 12:50:31;;;;;;;13.32;4.95;;;24.70;34.40;;;;;;6113433;28;20437;-70
2022/03/16 12:53:44;;;;;;;13.90;5.78;;;24.60;34.10;;;;;;6118125;28;20032;-69
2022/03/16 12:56:50;;;;;;;13.90;4.60;;;24.60;34.20;;;;;;6104864;28;20036;-70
2022/03/16 12:59:56;;;;;;;18.65;5.47;;;24.50;34.10;;;;;;6100432;28;20193;-69
2022/03/16 13:03:15;;;;;;;13.80;4.32;;;24.30;34.00;;;;;;6116206;28;20047;-68
2022/03/16 13:06:18;;;;;;;15.55;4.55;;;24.10;33.90;;;;;;6116905;28;20051;-69
2022/03/16 13:09:19;;;;;;;12.25;3.42;;;24.00;34.10;;;;;;6119465;28;20091;-70
2022/03/16 13:12:23;;;;;;;8.13;2.90;;;23.90;34.20;;;;;;6118637;28;20047;-70
2022/03/16 13:15:25;;;;;;;4.75;2.65;;;23.80;34.00;;;;;;6137488;28;20130;-70
2022/03/16 13:18:33;;;;;;;10.27;2.53;;;23.80;34.00;;;;;;6104296;28;20039;-70
2022/03/16 13:21:36;;;;;;;12.27;2.85;;;23.80;33.70;;;;;;6122444;28;20058;-69
2022/03/16 13:24:37;;;;;;;12.57;3.17;;;23.80;33.50;;;;;;6121071;28;20091;-69
2022/03/16 13:27:39;;;;;;;6.68;2.85;;;23.80;33.50;;;;;;6121414;28;20438;-70
2022/03/16 13:30:41;;;;;;;8.98;3.00;;;23.70;33.40;;;;;;6120123;28;20040;-69
2022/03/16 13:33:47;;;;;;;7.80;2.60;;;23.60;33.50;;;;;;6121361;28;20176;-69
2022/03/16 13:36:51;;;;;;;6.97;2.35;;;23.40;33.60;;;;;;6123984;28;20039;-70
2022/03/16 13:40:07;;;;;;;14.30;3.20;;;23.40;33.80;;;;;;6105097;28;20042;-68
2022/03/16 13:43:11;;;;;;;10.18;2.75;;;23.20;34.00;;;;;;6110176;28;20154;-68
2022/03/16 13:46:14;;;;;;;18.63;2.97;;;23.10;34.50;;;;;;6127704;28;20086;-69
2022/03/16 13:49:17;;;;;;;6.80;2.70;;;23.00;34.80;;;;;;6123076;28;20067;-68
2022/03/16 13:52:20;;;;;;;12.18;3.13;;;23.00;34.90;;;;;;6103921;28;20069;-69
2022/03/16 13:55:21;;;;;;;6.53;2.58;;;23.00;34.90;;;;;;6122510;28;20134;-69
2022/03/16 13:58:25;;;;;;;13.00;3.00;;;23.10;35.00;;;;;;6112222;28;20043;-69
2022/03/16 14:01:27;;;;;;;17.20;3.20;;;23.10;35.00;;;;;;6106148;28;20350;-69
2022/03/16 14:04:30;;;;;;;8.60;2.65;;;23.20;35.00;;;;;;6117598;28;20132;-70
2022/03/16 14:07:34;;;;;;;15.23;2.70;;;23.20;35.10;;;;;;6113887;28;20046;-69
2022/03/16 14:10:35;;;;;;;7.57;2.40;;;23.10;35.20;;;;;;6097523;29;20040;-69
2022/03/16 14:13:42;;;;;;;8.90;2.35;;;23.10;35.10;;;;;;6123019;28;20099;-69
2022/03/16 14:16:47;;;;;;;10.27;3.28;;;23.10;35.20;;;;;;6116106;28;20368;-69
2022/03/16 14:19:48;;;;;;;16.10;3.03;;;23.00;35.20;;;;;;6118222;28;20036;-69
2022/03/16 14:22:50;;;;;;;12.55;3.17;;;23.00;35.10;;;;;;6117318;28;20059;-69
2022/03/16 14:25:55;;;;;;;19.50;3.17;;;23.00;35.00;;;;;;6124392;28;20039;-68
2022/03/16 14:28:56;;;;;;;8.98;3.45;;;23.00;35.00;;;;;;6121963;28;20118;-70
2022/03/16 14:31:57;;;;;;;4.53;2.30;;;23.10;34.90;;;;;;6120595;28;20102;-69
2022/03/16 14:34:58;;;;;;;4.53;1.90;;;23.20;34.80;;;;;;6126285;28;20130;-69
2022/03/16 14:38:04;;;;;;;10.98;3.22;;;23.10;34.70;;;;;;6110083;28;20062;-69
2022/03/16 14:41:07;;;;;;;8.10;2.78;;;23.00;34.70;;;;;;6124343;28;20031;-68
2022/03/16 14:44:08;;;;;;;6.95;2.30;;;23.00;34.90;;;;;;6103142;28;20032;-69
2022/03/16 14:47:09;;;;;;;8.35;1.85;;;22.80;34.90;;;;;;6124025;28;20044;-69
2022/03/16 14:50:11;;;;;;;6.20;3.13;;;22.80;35.20;;;;;;6125438;28;20036;-70
2022/03/16 14:53:11;;;;;;;6.60;2.80;;;22.80;35.20;;;;;;6122827;28;20426;-69
2022/03/16 14:56:12;;;;;;;5.18;2.53;;;22.80;35.30;;;;;;6121946;28;20040;-70
2022/03/16 14:59:13;;;;;;;3.92;2.13;;;22.80;35.30;;;;;;6123632;28;20380;-69
2022/03/16 15:02:14;;;;;;;8.65;1.98;;;22.90;35.30;;;;;;6118700;28;20144;-69
2022/03/16 15:05:16;;;;;;;8.45;2.70;;;22.90;35.20;;;;;;6123118;28;20048;-70
2022/03/16 15:08:18;;;;;;;4.78;1.77;;;22.90;35.10;;;;;;6120826;28;20418;-70
2022/03/16 15:11:19;;;;;;;9.00;2.03;;;22.90;35.10;;;;;;6121676;28;20457;-69
2022/03/16 15:14:21;;;;;;;6.63;2.45;;;23.00;35.00;;;;;;6120249;28;20339;-69
2022/03/16 15:17:21;;;;;;;10.10;2.10;;;23.00;34.90;;;;;;6122670;28;20044;-69
2022/03/16 15:20:22;;;;;;;10.43;2.33;;;23.10;34.90;;;;;;6120605;28;20389;-70
2022/03/16 15:23:23;;;;;;;10.93;2.78;;;23.20;34.70;;;;;;6121723;28;20043;-69
2022/03/16 15:26:25;;;;;;;5.20;2.17;;;23.20;34.80;;;;;;6119271;28;20171;-69
2022/03/16 15:29:29;;;;;;;10.25;2.35;;;23.20;34.60;;;;;;6105200;28;20366;-70
2022/03/16 15:32:30;;;;;;;6.72;2.58;;;23.20;34.60;;;;;;6125069;28;20370;-69
2022/03/16 15:35:31;;;;;;;12.13;2.67;;;23.30;34.70;;;;;;6118082;28;20063;-69
2022/03/16 15:38:33;;;;;;;10.25;2.83;;;23.30;34.70;;;;;;6121583;28;20123;-70
2022/03/16 15:44:54;;;;;;;10.10;2.92;;;23.20;34.70;;;;;;6122061;28;20040;-68
2022/03/16 15:47:55;;;;;;;5.00;2.50;;;23.00;34.90;;;;;;6115809;28;20048;-69
2022/03/16 15:50:56;;;;;;;4.03;2.05;;;22.90;35.00;;;;;;6121213;28;20115;-69
2022/03/16 15:53:56;;;;;;;10.55;2.65;;;22.80;35.20;;;;;;6123836;28;20094;-69
2022/03/16 15:56:59;;;;;;;6.70;2.15;;;22.70;35.40;;;;;;6123607;28;20059;-69
2022/03/16 16:00:00;;;;;;;8.52;2.60;;;22.60;35.60;;;;;;6118923;28;20385;-70
2022/03/16 16:03:01;;;;;;;11.05;2.20;;;22.60;35.70;;;;;;6111415;28;20062;-69